createdAt,value
2023-05-10T00:00:18.982Z,44.51
2023-05-10T00:02:47.150Z,44.49
2023-05-10T00:05:15.099Z,44.99
2023-05-10T00:07:45.683Z,45.02
2023-05-10T00:10:14.316Z,44.99
2023-05-10T00:12:44.146Z,44.47
2023-05-10T00:15:13.196Z,45.18
2023-05-10T00:17:41.419Z,45.18
2023-05-10T00:20:10.376Z,44.72
2023-05-10T00:22:38.303Z,44.83
2023-05-10T00:25:07.454Z,44.53
2023-05-10T00:27:35.565Z,45.22
2023-05-10T00:30:05.468Z,45.34
2023-05-10T00:32:33.445Z,45.19
2023-05-10T00:35:01.443Z,45.41
2023-05-10T00:37:29.354Z,46.00
2023-05-10T00:39:57.383Z,46.45
2023-05-10T00:42:25.479Z,46.28
2023-05-10T00:44:55.716Z,46.78
2023-05-10T00:47:25.104Z,46.61
2023-05-10T00:49:53.631Z,46.58
2023-05-10T00:52:21.802Z,46.56
2023-05-10T00:54:50.173Z,47.36
2023-05-10T00:57:18.325Z,47.24
2023-05-10T00:59:46.358Z,47.32
2023-05-10T01:02:15.382Z,47.25
2023-05-10T01:04:45.297Z,47.19
2023-05-10T01:07:13.204Z,47.24
2023-05-10T01:09:41.319Z,47.82
2023-05-10T01:12:09.566Z,47.72
2023-05-10T01:14:38.306Z,48.21
2023-05-10T01:17:08.065Z,48.15
2023-05-10T01:19:43.724Z,48.79
2023-05-10T01:22:44.188Z,48.50
2023-05-10T01:25:45.815Z,48.19
2023-05-10T01:28:50.256Z,48.40
2023-05-10T01:31:32.902Z,47.89
2023-05-10T01:34:07.278Z,48.79
2023-05-10T01:36:42.360Z,48.77
2023-05-10T01:39:18.027Z,48.70
2023-05-10T01:41:53.162Z,49.09
2023-05-10T01:44:29.322Z,48.89
2023-05-10T01:47:06.561Z,49.34
2023-05-10T01:49:42.543Z,49.58
2023-05-10T01:52:12.727Z,49.10
2023-05-10T01:54:45.169Z,48.94
2023-05-10T01:57:15.876Z,49.42
2023-05-10T01:59:47.517Z,49.96
2023-05-10T02:02:17.233Z,49.65
2023-05-10T02:04:49.642Z,50.13
2023-05-10T02:07:18.632Z,49.70
2023-05-10T02:09:49.054Z,49.65
2023-05-10T02:12:18.124Z,50.05
2023-05-10T02:14:47.313Z,50.19
2023-05-10T02:17:16.450Z,50.23
2023-05-10T02:19:46.335Z,50.28
2023-05-10T02:22:17.389Z,50.29
2023-05-10T02:24:47.121Z,50.22
2023-05-10T02:27:17.798Z,50.18
2023-05-10T02:29:46.935Z,50.57
2023-05-10T02:32:16.606Z,51.13
2023-05-10T02:34:46.572Z,50.73
2023-05-10T02:37:19.353Z,50.47
2023-05-10T02:39:48.978Z,51.50
2023-05-10T02:42:19.892Z,50.81
2023-05-10T02:44:51.139Z,50.69
2023-05-10T02:47:19.929Z,50.96
2023-05-10T02:49:48.226Z,50.75
2023-05-10T02:52:24.254Z,51.14
2023-05-10T02:54:56.633Z,51.21
2023-05-10T02:57:29.408Z,51.06
2023-05-10T02:59:57.391Z,51.22
2023-05-10T03:02:25.485Z,51.30
2023-05-10T03:04:53.382Z,52.08
2023-05-10T03:07:23.300Z,51.84
2023-05-10T03:09:51.815Z,51.70
2023-05-10T03:12:29.359Z,52.08
2023-05-10T03:15:04.408Z,51.90
2023-05-10T03:17:38.442Z,52.24
2023-05-10T03:20:08.676Z,52.01
2023-05-10T03:22:40.419Z,51.75
2023-05-10T03:25:12.580Z,51.96
2023-05-10T03:27:45.628Z,51.57
2023-05-10T03:30:15.182Z,52.61
2023-05-10T03:32:43.423Z,52.11
2023-05-10T03:35:12.637Z,52.20
2023-05-10T03:37:42.094Z,52.32
2023-05-10T03:40:11.934Z,52.66
2023-05-10T03:42:42.485Z,52.29
2023-05-10T03:45:11.686Z,52.83
2023-05-10T03:47:39.599Z,51.78
2023-05-10T03:50:08.800Z,51.92
2023-05-10T03:52:36.861Z,52.26
2023-05-10T03:55:07.308Z,51.75
2023-05-10T03:57:35.725Z,51.97
2023-05-10T04:00:03.785Z,52.20
2023-05-10T04:02:42.410Z,52.06
2023-05-10T04:05:15.792Z,52.43
2023-05-10T04:07:45.250Z,52.61
2023-05-10T04:10:14.963Z,51.88
2023-05-10T04:12:42.988Z,52.09
2023-05-10T04:15:11.437Z,52.17
2023-05-10T04:17:39.342Z,51.60
2023-05-10T04:20:08.659Z,51.71
2023-05-10T04:22:36.727Z,52.00
2023-05-10T04:25:05.363Z,51.56
2023-05-10T04:27:34.732Z,51.31
2023-05-10T04:30:02.935Z,51.38
2023-05-10T04:32:30.858Z,51.92
2023-05-10T04:34:58.814Z,51.38
2023-05-10T04:37:26.718Z,51.22
2023-05-10T04:39:54.549Z,50.75
2023-05-10T04:42:22.362Z,51.04
2023-05-10T04:44:52.843Z,50.74
2023-05-10T04:47:20.920Z,50.17
2023-05-10T04:49:48.843Z,50.13
2023-05-10T04:52:18.528Z,49.98
2023-05-10T04:54:46.429Z,50.08
2023-05-10T04:57:14.260Z,50.05
2023-05-10T04:59:42.127Z,50.27
2023-05-10T05:02:11.379Z,49.90
2023-05-10T05:04:39.229Z,49.88
2023-05-10T05:07:07.075Z,49.84
2023-05-10T05:09:34.950Z,49.59
2023-05-10T05:12:02.810Z,49.70
2023-05-10T05:14:30.694Z,48.70
2023-05-10T05:16:58.677Z,49.17
2023-05-10T05:19:28.359Z,49.11
2023-05-10T05:21:56.207Z,48.84
2023-05-10T05:24:24.123Z,48.28
2023-05-10T05:26:51.971Z,48.16
2023-05-10T05:29:19.896Z,47.72
2023-05-10T05:31:47.822Z,47.63
2023-05-10T05:34:15.684Z,46.81
2023-05-10T05:36:44.898Z,47.41
2023-05-10T05:39:12.754Z,46.60
2023-05-10T05:41:40.612Z,46.50
2023-05-10T05:44:08.549Z,45.84
2023-05-10T05:46:36.433Z,45.78
2023-05-10T05:49:04.402Z,45.96
2023-05-10T05:51:33.208Z,46.13
2023-05-10T05:54:02.691Z,45.74
2023-05-10T05:56:30.687Z,45.57
2023-05-10T05:58:58.516Z,45.08
2023-05-10T06:01:26.381Z,45.75
2023-05-10T06:03:54.299Z,45.82
2023-05-10T06:06:22.203Z,45.71
2023-05-10T06:08:50.054Z,45.79
2023-05-10T06:11:19.281Z,45.63
2023-05-10T06:13:47.163Z,45.96
2023-05-10T06:16:15.313Z,45.27
2023-05-10T06:18:43.182Z,45.06
2023-05-10T06:21:11.056Z,45.73
2023-05-10T06:23:38.918Z,45.18
2023-05-10T06:26:06.806Z,45.18
2023-05-10T06:28:36.092Z,45.36
2023-05-10T06:31:03.962Z,44.48
2023-05-10T06:33:32.112Z,44.88
2023-05-10T06:36:00.042Z,45.29
2023-05-10T06:38:28.282Z,44.29
2023-05-10T06:40:56.217Z,43.72
2023-05-10T06:43:24.363Z,43.94
2023-05-10T06:45:53.633Z,43.68
2023-05-10T06:48:21.524Z,43.78
2023-05-10T06:50:49.416Z,43.68
2023-05-10T06:53:17.299Z,44.04
2023-05-10T06:55:45.173Z,43.69
2023-05-10T06:58:13.544Z,43.59
2023-05-10T07:00:44.550Z,42.73
2023-05-10T07:03:13.894Z,42.80
2023-05-10T07:05:41.816Z,43.25
2023-05-10T07:08:10.037Z,42.86
2023-05-10T07:10:37.960Z,42.34
2023-05-10T07:13:05.908Z,43.33
2023-05-10T07:15:34.469Z,43.32
2023-05-10T07:18:02.395Z,42.83
2023-05-10T07:20:31.665Z,42.98
2023-05-10T07:22:59.472Z,42.29
2023-05-10T07:25:27.327Z,43.41
2023-05-10T07:27:55.222Z,42.49
2023-05-10T07:30:23.218Z,42.90
2023-05-10T07:32:51.178Z,42.39
2023-05-10T07:35:19.255Z,42.01
2023-05-10T07:37:48.521Z,41.94
2023-05-10T07:40:16.425Z,42.14
2023-05-10T07:42:44.290Z,41.80
2023-05-10T07:45:12.389Z,42.22
2023-05-10T07:47:40.293Z,41.49
2023-05-10T07:50:09.766Z,42.01
2023-05-10T07:52:37.616Z,42.49
2023-05-10T07:55:08.362Z,41.76
2023-05-10T07:57:36.440Z,41.58
2023-05-10T08:00:04.812Z,41.28
2023-05-10T08:02:41.267Z,41.18
2023-05-10T08:05:10.487Z,41.37
2023-05-10T08:07:38.476Z,40.85
2023-05-10T08:10:09.619Z,41.64
2023-05-10T08:12:37.585Z,41.27
2023-05-10T08:15:06.935Z,40.45
2023-05-10T08:17:35.028Z,41.00
2023-05-10T08:20:03.509Z,40.68
2023-05-10T08:22:31.713Z,40.86
2023-05-10T08:24:59.787Z,40.61
2023-05-10T08:27:29.253Z,40.53
2023-05-10T08:29:57.454Z,39.93
2023-05-10T08:32:25.658Z,40.98
2023-05-10T08:34:53.701Z,40.18
2023-05-10T08:37:21.725Z,39.93
2023-05-10T08:39:49.934Z,40.71
2023-05-10T08:42:23.091Z,39.74
2023-05-10T08:44:53.114Z,39.36
2023-05-10T08:47:21.916Z,40.41
2023-05-10T08:49:51.990Z,39.72
2023-05-10T08:52:20.804Z,39.59
2023-05-10T08:54:49.142Z,39.18
2023-05-10T08:57:17.065Z,39.58
2023-05-10T08:59:45.224Z,39.16
2023-05-10T09:02:18.575Z,39.42
2023-05-10T09:04:46.837Z,39.23
2023-05-10T09:07:15.105Z,39.05
2023-05-10T09:09:43.224Z,38.16
2023-05-10T09:12:12.619Z,37.93
2023-05-10T09:14:41.460Z,37.15
2023-05-10T09:17:09.674Z,35.81
2023-05-10T09:19:39.044Z,35.56
2023-05-10T09:22:06.937Z,33.62
2023-05-10T09:24:35.054Z,33.82
2023-05-10T09:27:03.833Z,34.72
2023-05-10T09:29:41.575Z,34.50
2023-05-10T09:32:09.534Z,33.69
2023-05-10T09:34:41.195Z,34.14
2023-05-10T09:37:09.293Z,32.95
2023-05-10T09:39:38.500Z,32.40
2023-05-10T09:42:08.540Z,34.06
2023-05-10T09:44:37.032Z,32.61
2023-05-10T09:47:05.543Z,32.75
2023-05-10T09:49:34.289Z,32.32
2023-05-10T09:52:04.898Z,30.91
2023-05-10T09:54:33.755Z,30.98
2023-05-10T09:57:01.948Z,31.64
2023-05-10T09:59:31.511Z,30.51
2023-05-10T10:02:01.623Z,30.10
2023-05-10T10:04:30.272Z,30.38
2023-05-10T10:07:03.741Z,31.48
2023-05-10T10:09:32.449Z,31.61
2023-05-10T10:12:01.676Z,31.44
2023-05-10T10:14:30.767Z,31.35
2023-05-10T10:19:30.261Z,29.14
2023-05-10T10:21:58.271Z,29.90
2023-05-10T10:24:27.643Z,29.46
2023-05-10T10:26:59.370Z,29.15
2023-05-10T10:29:35.888Z,29.23
2023-05-10T10:32:14.241Z,30.55
2023-05-10T10:34:42.670Z,29.71
2023-05-10T10:37:10.681Z,29.93
2023-05-10T10:39:40.320Z,28.92
2023-05-10T10:42:08.242Z,29.52
2023-05-10T10:44:40.333Z,29.01
2023-05-10T10:47:30.015Z,28.42
2023-05-10T10:50:09.019Z,29.90
2023-05-10T10:52:38.640Z,28.98
2023-05-10T10:55:10.288Z,28.94
2023-05-10T10:57:52.904Z,27.63
2023-05-10T11:00:26.301Z,28.91
2023-05-10T11:02:56.049Z,28.59
2023-05-10T11:05:38.973Z,29.25
2023-05-10T11:08:22.825Z,28.80
2023-05-10T11:11:08.895Z,29.00
2023-05-10T11:13:40.692Z,28.18
2023-05-10T11:16:19.668Z,28.01
2023-05-10T11:18:55.932Z,28.17
2023-05-10T11:21:24.258Z,29.10
2023-05-10T11:23:57.290Z,28.24
2023-05-10T11:26:27.558Z,29.26
2023-05-10T11:28:57.365Z,28.96
2023-05-10T11:31:27.605Z,30.11
2023-05-10T11:33:57.780Z,28.54
2023-05-10T11:36:28.240Z,27.94
2023-05-10T11:38:56.702Z,27.30
2023-05-10T11:41:27.058Z,28.47
2023-05-10T11:43:56.495Z,29.96
2023-05-10T11:46:25.706Z,27.00
2023-05-10T11:48:55.103Z,27.49
2023-05-10T11:51:23.846Z,27.84
2023-05-10T11:53:52.833Z,26.20
2023-05-10T11:56:21.747Z,31.12
2023-05-10T11:58:57.686Z,28.98
2023-05-10T12:01:26.859Z,28.15
2023-05-10T12:03:56.391Z,28.23
2023-05-10T12:06:24.817Z,28.10
2023-05-10T12:08:54.800Z,27.56
2023-05-10T12:11:28.162Z,28.10
2023-05-10T12:13:58.163Z,27.77
2023-05-10T12:16:27.569Z,27.69
2023-05-10T12:19:00.047Z,29.03
2023-05-10T12:21:31.404Z,28.22
2023-05-10T12:24:03.531Z,28.66
2023-05-10T12:26:31.640Z,29.10
2023-05-10T12:29:17.689Z,27.87
2023-05-10T12:31:53.801Z,27.16
2023-05-10T12:34:26.374Z,28.80
2023-05-10T12:36:55.474Z,28.11
2023-05-10T12:39:23.768Z,28.78
2023-05-10T12:41:52.391Z,29.85
2023-05-10T12:44:21.648Z,29.38
2023-05-10T12:46:49.811Z,29.23
2023-05-10T12:49:17.811Z,30.93
2023-05-10T12:51:45.754Z,29.15
2023-05-10T12:54:13.693Z,30.31
2023-05-10T12:56:41.848Z,30.23
2023-05-10T12:59:09.760Z,29.57
2023-05-10T13:01:39.344Z,28.85
2023-05-10T13:04:07.444Z,28.02
2023-05-10T13:06:36.034Z,31.78
2023-05-10T13:09:04.489Z,28.39
2023-05-10T13:11:32.457Z,28.70
2023-05-10T13:14:01.246Z,30.15
2023-05-10T13:16:29.172Z,30.29
2023-05-10T13:18:59.513Z,29.40
2023-05-10T13:21:27.644Z,28.87
2023-05-10T13:23:55.679Z,29.72
2023-05-10T13:26:23.596Z,29.46
2023-05-10T13:28:52.789Z,28.46
2023-05-10T13:31:21.700Z,28.81
2023-05-10T13:33:49.621Z,28.68
2023-05-10T13:36:19.263Z,29.58
2023-05-10T13:38:49.957Z,29.57
2023-05-10T13:41:18.652Z,27.60
2023-05-10T13:43:46.688Z,27.15
2023-05-10T13:46:14.611Z,29.14
2023-05-10T13:48:42.463Z,28.08
2023-05-10T13:51:10.481Z,28.84
2023-05-10T13:53:39.769Z,28.57
2023-05-10T13:56:08.168Z,28.33
2023-05-10T13:58:36.766Z,29.07
2023-05-10T14:01:05.839Z,28.40
2023-05-10T14:03:34.100Z,28.05
2023-05-10T14:06:02.331Z,28.38
2023-05-10T14:08:30.245Z,27.63
2023-05-10T14:10:59.505Z,27.44
2023-05-10T14:13:27.359Z,28.19
2023-05-10T14:15:56.232Z,28.38
2023-05-10T14:18:24.332Z,28.46
2023-05-10T14:20:52.273Z,28.28
2023-05-10T14:23:20.871Z,27.79
2023-05-10T14:25:48.732Z,27.02
2023-05-10T14:28:18.263Z,25.29
2023-05-10T14:30:46.295Z,26.57
2023-05-10T14:33:14.312Z,27.05
2023-05-10T14:35:42.433Z,27.25
2023-05-10T14:38:11.711Z,26.61
2023-05-10T14:40:39.538Z,27.75
2023-05-10T14:43:07.568Z,27.16
2023-05-10T14:45:37.019Z,26.80
2023-05-10T14:48:05.634Z,27.08
2023-05-10T14:50:36.980Z,26.88
2023-05-10T14:53:05.339Z,27.79
2023-05-10T14:55:33.690Z,28.11
2023-05-10T14:58:01.615Z,28.59
2023-05-10T15:00:31.341Z,28.17
2023-05-10T15:03:01.181Z,28.66
2023-05-10T15:05:29.557Z,28.00
2023-05-10T15:07:57.849Z,28.45
2023-05-10T15:10:26.265Z,28.84
2023-05-10T15:12:54.166Z,29.30
2023-05-10T15:15:22.137Z,28.29
2023-05-10T15:17:50.150Z,29.52
2023-05-10T15:20:19.594Z,28.98
2023-05-10T15:22:47.477Z,29.50
2023-05-10T15:25:16.984Z,29.47
2023-05-10T15:27:45.596Z,29.15
2023-05-10T15:30:14.257Z,28.96
2023-05-10T15:32:42.203Z,29.36
2023-05-10T15:35:11.141Z,30.46
2023-05-10T15:37:40.570Z,29.38
2023-05-10T15:40:09.199Z,30.15
2023-05-10T15:42:37.100Z,29.26
2023-05-10T15:45:05.947Z,29.74
2023-05-10T15:47:34.179Z,29.55
2023-05-10T15:50:02.168Z,29.52
2023-05-10T15:52:30.064Z,30.01
2023-05-10T15:54:59.292Z,29.90
2023-05-10T15:57:27.233Z,30.05
2023-05-10T15:59:56.292Z,30.39
2023-05-10T16:02:24.470Z,30.79
2023-05-10T16:04:52.709Z,30.62
2023-05-10T16:07:20.661Z,30.42
2023-05-10T16:09:49.443Z,30.59
2023-05-10T16:12:18.872Z,30.86
2023-05-10T16:14:47.799Z,30.65
2023-05-10T16:17:16.346Z,30.84
2023-05-10T16:19:44.260Z,31.01
2023-05-10T16:22:12.208Z,31.46
2023-05-10T16:24:40.083Z,33.31
2023-05-10T16:27:08.043Z,33.79
2023-05-10T16:29:37.295Z,34.73
2023-05-10T16:32:05.224Z,35.01
2023-05-10T16:34:33.067Z,37.84
2023-05-10T16:37:01.061Z,41.33
2023-05-10T16:39:29.230Z,42.04
2023-05-10T16:41:57.106Z,43.98
2023-05-10T16:44:25.924Z,44.74
2023-05-10T16:46:56.021Z,44.41
2023-05-10T16:49:26.099Z,44.58
2023-05-10T16:51:54.259Z,46.21
2023-05-10T16:54:22.798Z,45.40
2023-05-10T16:56:50.798Z,46.15
2023-05-10T16:59:18.711Z,46.45
2023-05-10T17:01:47.109Z,46.26
2023-05-10T17:04:17.790Z,46.32
2023-05-10T17:06:45.715Z,47.34
2023-05-10T17:09:13.921Z,47.21
2023-05-10T17:11:41.988Z,47.10
2023-05-10T17:14:10.136Z,47.78
2023-05-10T17:16:38.109Z,48.48
2023-05-10T17:19:06.079Z,48.20
2023-05-10T17:21:35.394Z,49.59
2023-05-10T17:24:03.274Z,49.40
2023-05-10T17:26:31.189Z,50.30
2023-05-10T17:28:59.376Z,49.82
2023-05-10T17:31:27.704Z,50.61
2023-05-10T17:33:55.616Z,49.75
2023-05-10T17:36:23.487Z,50.69
2023-05-10T17:38:52.814Z,51.40
2023-05-10T17:41:21.765Z,51.36
2023-05-10T17:43:49.615Z,51.41
2023-05-10T17:46:17.975Z,51.11
2023-05-10T17:48:45.985Z,51.23
2023-05-10T17:51:13.895Z,52.02
2023-05-10T17:53:42.370Z,52.11
2023-05-10T17:56:11.552Z,52.08
2023-05-10T17:58:39.453Z,53.73
2023-05-10T18:01:07.443Z,52.79
2023-05-10T18:03:35.988Z,52.00
2023-05-10T18:06:05.169Z,52.88
2023-05-10T18:08:33.800Z,53.93
2023-05-10T18:11:01.687Z,53.72
2023-05-10T18:13:30.942Z,55.15
2023-05-10T18:15:59.393Z,54.13
2023-05-10T18:18:27.352Z,54.81
2023-05-10T18:20:57.645Z,54.70
2023-05-10T18:23:26.322Z,55.53
2023-05-10T18:25:54.380Z,54.62
2023-05-10T18:28:22.301Z,55.90
2023-05-10T18:30:52.197Z,55.64
2023-05-10T18:33:20.133Z,56.06
2023-05-10T18:35:48.022Z,55.86
2023-05-10T18:38:15.916Z,56.41
2023-05-10T18:40:44.044Z,56.26
2023-05-10T18:43:11.910Z,56.20
2023-05-10T18:45:40.044Z,55.77
2023-05-10T18:48:09.295Z,56.93
2023-05-10T18:50:37.191Z,56.88
2023-05-10T18:53:05.040Z,57.80
2023-05-10T18:55:32.933Z,56.07
2023-05-10T18:58:00.908Z,58.03
2023-05-10T19:00:28.783Z,58.61
2023-05-10T19:02:56.757Z,57.38
2023-05-10T19:05:29.945Z,57.41
2023-05-10T19:07:57.923Z,57.43
2023-05-10T19:10:25.819Z,57.05
2023-05-10T19:12:53.712Z,58.15
2023-05-10T19:15:22.145Z,57.29
2023-05-10T19:17:51.617Z,57.35
2023-05-10T19:20:19.780Z,57.48
2023-05-10T19:25:24.169Z,57.09
2023-05-10T19:27:52.656Z,56.97
2023-05-10T19:30:20.582Z,57.20
2023-05-10T19:32:48.497Z,57.43
2023-05-10T19:35:16.827Z,57.40
2023-05-10T19:37:46.050Z,57.59
2023-05-10T19:40:17.489Z,57.84
2023-05-10T19:42:45.513Z,58.22
2023-05-10T19:45:15.465Z,58.37
2023-05-10T19:47:43.770Z,58.59
2023-05-10T19:50:12.915Z,59.15
2023-05-10T19:52:41.252Z,59.48
2023-05-10T19:55:09.807Z,59.13
2023-05-10T19:57:39.215Z,60.15
2023-05-10T20:00:08.342Z,60.07
2023-05-10T20:02:39.143Z,60.73
2023-05-10T20:05:07.852Z,61.39
2023-05-10T20:07:37.964Z,61.45
2023-05-10T20:10:06.498Z,62.06
2023-05-10T20:12:35.433Z,60.58
2023-05-10T20:15:05.305Z,60.62
2023-05-10T20:17:33.442Z,62.19
2023-05-10T20:20:01.366Z,62.16
2023-05-10T20:22:29.229Z,62.29
2023-05-10T20:24:58.476Z,62.06
2023-05-10T20:27:26.326Z,62.10
2023-05-10T20:29:54.216Z,62.48
2023-05-10T20:32:23.520Z,61.43
2023-05-10T20:34:51.405Z,61.98
2023-05-10T20:37:19.345Z,61.64
2023-05-10T20:39:49.812Z,63.11
2023-05-10T20:42:18.270Z,62.54
2023-05-10T20:44:46.093Z,62.30
2023-05-10T20:47:15.464Z,62.24
2023-05-10T20:49:45.011Z,62.58
2023-05-10T20:52:12.902Z,62.46
2023-05-10T20:54:40.910Z,63.31
2023-05-10T20:57:08.770Z,62.98
2023-05-10T20:59:36.753Z,63.38
2023-05-10T21:02:04.635Z,63.96
2023-05-10T21:04:32.578Z,64.04
2023-05-10T21:07:02.060Z,64.31
2023-05-10T21:09:30.117Z,65.03
2023-05-10T21:11:59.029Z,64.53
2023-05-10T21:14:26.913Z,64.36
2023-05-10T21:16:54.827Z,64.07
2023-05-10T21:19:22.725Z,64.29
2023-05-10T21:21:50.730Z,65.18
2023-05-10T21:24:19.990Z,65.06
2023-05-10T21:26:47.810Z,65.15
2023-05-10T21:29:15.689Z,64.84
2023-05-10T21:31:43.663Z,64.09
2023-05-10T21:34:11.520Z,65.22
2023-05-10T21:36:39.397Z,64.79
2023-05-10T21:39:07.453Z,64.87
2023-05-10T21:41:37.159Z,64.70
2023-05-10T21:44:05.375Z,64.76
2023-05-10T21:46:33.192Z,64.61
2023-05-10T21:49:01.076Z,64.85
2023-05-10T21:51:30.054Z,65.43
2023-05-10T21:53:57.939Z,65.41
2023-05-10T21:56:25.909Z,66.31
2023-05-10T21:58:55.144Z,67.06
2023-05-10T22:01:23.074Z,66.95
2023-05-10T22:03:51.044Z,66.93
2023-05-10T22:06:18.938Z,65.29
2023-05-10T22:08:46.834Z,64.99
2023-05-10T22:11:14.752Z,66.24
2023-05-10T22:13:42.589Z,66.03
2023-05-10T22:16:11.896Z,66.79
2023-05-10T22:18:39.845Z,66.29
2023-05-10T22:21:09.919Z,66.27
2023-05-10T22:23:37.797Z,65.55
2023-05-10T22:26:05.959Z,65.50
2023-05-10T22:28:33.991Z,65.00
2023-05-10T22:31:01.869Z,65.00
2023-05-10T22:33:31.166Z,64.96
2023-05-10T22:35:59.066Z,64.49
2023-05-10T22:38:26.968Z,64.38
2023-05-10T22:40:54.836Z,64.46
2023-05-10T22:43:22.750Z,65.80
2023-05-10T22:45:50.621Z,64.72
2023-05-10T22:48:18.594Z,65.15
2023-05-10T22:50:47.823Z,64.39
2023-05-10T22:53:15.706Z,64.56
2023-05-10T22:55:43.607Z,64.88
2023-05-10T22:58:11.682Z,64.54
2023-05-10T23:00:40.826Z,65.69
2023-05-10T23:03:08.765Z,65.46
2023-05-10T23:05:36.630Z,65.66
2023-05-10T23:08:05.961Z,66.13
2023-05-10T23:10:33.829Z,67.13
2023-05-10T23:13:01.692Z,67.21
2023-05-10T23:15:29.703Z,66.53
2023-05-10T23:18:00.918Z,66.40
2023-05-10T23:20:28.917Z,66.99
2023-05-10T23:22:56.808Z,67.83
2023-05-10T23:25:26.066Z,67.81
2023-05-10T23:27:53.977Z,67.97
2023-05-10T23:30:21.933Z,68.19
2023-05-10T23:32:49.914Z,68.81
2023-05-10T23:35:18.015Z,68.73
2023-05-10T23:37:45.889Z,68.07
2023-05-10T23:40:14.380Z,68.18
2023-05-10T23:42:43.619Z,68.29
2023-05-10T23:45:12.312Z,68.36
2023-05-10T23:47:40.288Z,68.29
2023-05-10T23:50:09.287Z,68.92
2023-05-10T23:52:37.213Z,69.13
2023-05-10T23:55:05.270Z,70.01
2023-05-10T23:57:33.123Z,69.96
